sensor_id;sensor_type;location;lat;lon;timestamp;temperature;humidity
7844;DHT22;3967;48.702;9.326;2024-02-26T00:00:38;8.60;82.90
7844;DHT22;3967;48.702;9.326;2024-02-26T00:03:05;8.60;82.90
7844;DHT22;3967;48.702;9.326;2024-02-26T00:05:32;8.60;82.50
7844;DHT22;3967;48.702;9.326;2024-02-26T00:07:59;8.60;82.70
7844;DHT22;3967;48.702;9.326;2024-02-26T00:10:30;8.50;82.50
7844;DHT22;3967;48.702;9.326;2024-02-26T00:12:56;8.50;82.60
7844;DHT22;3967;48.702;9.326;2024-02-26T00:15:23;8.30;82.30
7844;DHT22;3967;48.702;9.326;2024-02-26T00:17:51;8.10;82.50
7844;DHT22;3967;48.702;9.326;2024-02-26T00:20:18;8.10;82.90
7844;DHT22;3967;48.702;9.326;2024-02-26T00:22:45;8.10;82.90
7844;DHT22;3967;48.702;9.326;2024-02-26T00:25:12;8.10;82.90
7844;DHT22;3967;48.702;9.326;2024-02-26T00:27:39;8.10;82.70
7844;DHT22;3967;48.702;9.326;2024-02-26T00:30:08;8.10;82.50
7844;DHT22;3967;48.702;9.326;2024-02-26T00:32:35;8.00;82.20
7844;DHT22;3967;48.702;9.326;2024-02-26T00:35:02;8.00;82.20
7844;DHT22;3967;48.702;9.326;2024-02-26T00:37:29;8.00;81.80
7844;DHT22;3967;48.702;9.326;2024-02-26T00:39:56;8.00;81.60
7844;DHT22;3967;48.702;9.326;2024-02-26T00:42:23;8.10;81.50
7844;DHT22;3967;48.702;9.326;2024-02-26T00:44:50;8.20;81.00
7844;DHT22;3967;48.702;9.326;2024-02-26T00:47:16;8.20;80.50
7844;DHT22;3967;48.702;9.326;2024-02-26T00:49:43;8.10;80.50
7844;DHT22;3967;48.702;9.326;2024-02-26T00:52:10;8.20;80.70
7844;DHT22;3967;48.702;9.326;2024-02-26T00:54:37;8.20;79.80
7844;DHT22;3967;48.702;9.326;2024-02-26T00:57:04;8.20;79.70
7844;DHT22;3967;48.702;9.326;2024-02-26T00:59:30;8.30;80.80
7844;DHT22;3967;48.702;9.326;2024-02-26T01:01:57;8.40;80.40
7844;DHT22;3967;48.702;9.326;2024-02-26T01:04:26;8.40;80.20
7844;DHT22;3967;48.702;9.326;2024-02-26T01:06:54;8.40;80.70
7844;DHT22;3967;48.702;9.326;2024-02-26T01:09:21;8.30;80.70
7844;DHT22;3967;48.702;9.326;2024-02-26T01:11:48;8.10;80.40
7844;DHT22;3967;48.702;9.326;2024-02-26T01:14:15;8.10;80.40
7844;DHT22;3967;48.702;9.326;2024-02-26T01:16:41;8.10;80.80
7844;DHT22;3967;48.702;9.326;2024-02-26T01:19:08;8.20;80.90
7844;DHT22;3967;48.702;9.326;2024-02-26T01:21:35;8.00;80.00
7844;DHT22;3967;48.702;9.326;2024-02-26T01:24:02;8.10;79.80
7844;DHT22;3967;48.702;9.326;2024-02-26T01:26:29;8.20;80.30
7844;DHT22;3967;48.702;9.326;2024-02-26T01:28:56;8.20;80.60
7844;DHT22;3967;48.702;9.326;2024-02-26T01:31:22;8.20;80.70
7844;DHT22;3967;48.702;9.326;2024-02-26T01:33:49;8.20;80.80
7844;DHT22;3967;48.702;9.326;2024-02-26T01:36:16;8.20;81.30
7844;DHT22;3967;48.702;9.326;2024-02-26T01:38:43;8.30;81.90
7844;DHT22;3967;48.702;9.326;2024-02-26T01:41:10;8.20;82.10
7844;DHT22;3967;48.702;9.326;2024-02-26T01:43:37;8.20;82.90
7844;DHT22;3967;48.702;9.326;2024-02-26T01:46:04;8.20;83.20
7844;DHT22;3967;48.702;9.326;2024-02-26T01:48:31;8.20;83.40
7844;DHT22;3967;48.702;9.326;2024-02-26T01:50:58;8.10;82.70
7844;DHT22;3967;48.702;9.326;2024-02-26T01:53:25;8.20;82.50
7844;DHT22;3967;48.702;9.326;2024-02-26T01:55:52;8.20;82.60
7844;DHT22;3967;48.702;9.326;2024-02-26T01:58:18;8.20;83.40
7844;DHT22;3967;48.702;9.326;2024-02-26T02:00:45;8.20;84.10
7844;DHT22;3967;48.702;9.326;2024-02-26T02:03:13;8.20;84.30
7844;DHT22;3967;48.702;9.326;2024-02-26T02:05:40;8.20;84.20
7844;DHT22;3967;48.702;9.326;2024-02-26T02:08:10;8.10;84.70
7844;DHT22;3967;48.702;9.326;2024-02-26T02:10:43;8.10;85.20
7844;DHT22;3967;48.702;9.326;2024-02-26T02:13:10;8.10;85.50
7844;DHT22;3967;48.702;9.326;2024-02-26T02:15:37;7.90;85.60
7844;DHT22;3967;48.702;9.326;2024-02-26T02:18:04;7.70;87.60
7844;DHT22;3967;48.702;9.326;2024-02-26T02:20:34;7.80;87.10
7844;DHT22;3967;48.702;9.326;2024-02-26T02:23:02;7.90;86.60
7844;DHT22;3967;48.702;9.326;2024-02-26T02:25:29;7.80;85.90
7844;DHT22;3967;48.702;9.326;2024-02-26T02:27:56;7.60;88.40
7844;DHT22;3967;48.702;9.326;2024-02-26T02:30:26;7.50;90.20
7844;DHT22;3967;48.702;9.326;2024-02-26T02:32:55;7.60;90.20
7844;DHT22;3967;48.702;9.326;2024-02-26T02:35:24;7.70;90.30
7844;DHT22;3967;48.702;9.326;2024-02-26T02:37:52;7.60;90.10
7844;DHT22;3967;48.702;9.326;2024-02-26T02:40:19;7.50;89.70
7844;DHT22;3967;48.702;9.326;2024-02-26T02:42:46;7.50;90.40
7844;DHT22;3967;48.702;9.326;2024-02-26T02:45:12;7.60;90.30
7844;DHT22;3967;48.702;9.326;2024-02-26T02:47:39;7.80;90.20
7844;DHT22;3967;48.702;9.326;2024-02-26T02:50:06;7.80;90.30
7844;DHT22;3967;48.702;9.326;2024-02-26T02:52:33;7.70;90.90
7844;DHT22;3967;48.702;9.326;2024-02-26T02:55:00;7.60;91.10
7844;DHT22;3967;48.702;9.326;2024-02-26T02:57:27;7.70;91.20
7844;DHT22;3967;48.702;9.326;2024-02-26T02:59:53;7.50;91.10
7844;DHT22;3967;48.702;9.326;2024-02-26T03:02:20;7.20;92.00
7844;DHT22;3967;48.702;9.326;2024-02-26T03:04:47;7.20;92.30
7844;DHT22;3967;48.702;9.326;2024-02-26T03:07:14;7.40;92.20
7844;DHT22;3967;48.702;9.326;2024-02-26T03:09:40;7.50;91.50
7844;DHT22;3967;48.702;9.326;2024-02-26T03:12:07;7.50;91.40
7844;DHT22;3967;48.702;9.326;2024-02-26T03:14:34;7.60;91.30
7844;DHT22;3967;48.702;9.326;2024-02-26T03:17:02;7.50;90.70
7844;DHT22;3967;48.702;9.326;2024-02-26T03:19:28;7.60;89.90
7844;DHT22;3967;48.702;9.326;2024-02-26T03:21:55;7.60;89.10
7844;DHT22;3967;48.702;9.326;2024-02-26T03:24:22;7.30;89.60
7844;DHT22;3967;48.702;9.326;2024-02-26T03:26:49;7.30;90.10
7844;DHT22;3967;48.702;9.326;2024-02-26T03:29:16;7.30;89.30
7844;DHT22;3967;48.702;9.326;2024-02-26T03:31:43;7.40;88.50
7844;DHT22;3967;48.702;9.326;2024-02-26T03:34:09;7.40;87.80
7844;DHT22;3967;48.702;9.326;2024-02-26T03:36:38;7.50;87.80
7844;DHT22;3967;48.702;9.326;2024-02-26T03:39:05;7.50;87.40
7844;DHT22;3967;48.702;9.326;2024-02-26T03:41:34;7.60;86.70
7844;DHT22;3967;48.702;9.326;2024-02-26T03:44:02;7.60;86.20
7844;DHT22;3967;48.702;9.326;2024-02-26T03:46:28;7.60;86.50
7844;DHT22;3967;48.702;9.326;2024-02-26T03:48:55;7.70;87.10
7844;DHT22;3967;48.702;9.326;2024-02-26T03:51:22;7.60;88.50
7844;DHT22;3967;48.702;9.326;2024-02-26T03:53:49;7.60;88.90
7844;DHT22;3967;48.702;9.326;2024-02-26T03:56:16;7.60;89.50
7844;DHT22;3967;48.702;9.326;2024-02-26T03:58:43;7.50;88.80
7844;DHT22;3967;48.702;9.326;2024-02-26T04:01:10;7.60;88.60
7844;DHT22;3967;48.702;9.326;2024-02-26T04:03:36;7.50;89.10
7844;DHT22;3967;48.702;9.326;2024-02-26T04:06:04;7.40;88.10
7844;DHT22;3967;48.702;9.326;2024-02-26T04:08:31;7.40;87.90
7844;DHT22;3967;48.702;9.326;2024-02-26T04:10:57;7.50;85.30
7844;DHT22;3967;48.702;9.326;2024-02-26T04:13:25;7.40;84.50
7844;DHT22;3967;48.702;9.326;2024-02-26T04:15:51;7.50;83.50
7844;DHT22;3967;48.702;9.326;2024-02-26T04:18:18;7.50;84.80
7844;DHT22;3967;48.702;9.326;2024-02-26T04:20:45;7.40;85.60
7844;DHT22;3967;48.702;9.326;2024-02-26T04:23:12;7.50;86.30
7844;DHT22;3967;48.702;9.326;2024-02-26T04:25:38;7.60;85.50
7844;DHT22;3967;48.702;9.326;2024-02-26T04:28:05;7.60;85.60
7844;DHT22;3967;48.702;9.326;2024-02-26T04:30:32;7.60;87.50
7844;DHT22;3967;48.702;9.326;2024-02-26T04:32:59;7.60;88.90
7844;DHT22;3967;48.702;9.326;2024-02-26T04:35:26;7.50;89.40
7844;DHT22;3967;48.702;9.326;2024-02-26T04:37:52;7.50;90.20
7844;DHT22;3967;48.702;9.326;2024-02-26T04:40:19;7.50;90.50
7844;DHT22;3967;48.702;9.326;2024-02-26T04:42:46;7.40;90.60
7844;DHT22;3967;48.702;9.326;2024-02-26T04:45:13;7.30;90.50
7844;DHT22;3967;48.702;9.326;2024-02-26T04:47:40;7.00;91.10
7844;DHT22;3967;48.702;9.326;2024-02-26T04:50:07;7.00;92.00
7844;DHT22;3967;48.702;9.326;2024-02-26T04:52:34;7.00;91.40
7844;DHT22;3967;48.702;9.326;2024-02-26T04:55:00;7.20;91.10
7844;DHT22;3967;48.702;9.326;2024-02-26T04:57:27;7.40;91.00
7844;DHT22;3967;48.702;9.326;2024-02-26T04:59:54;7.40;90.40
7844;DHT22;3967;48.702;9.326;2024-02-26T05:02:21;7.50;90.20
7844;DHT22;3967;48.702;9.326;2024-02-26T05:04:48;7.40;90.00
7844;DHT22;3967;48.702;9.326;2024-02-26T05:07:14;7.30;89.70
7844;DHT22;3967;48.702;9.326;2024-02-26T05:09:44;7.20;90.00
7844;DHT22;3967;48.702;9.326;2024-02-26T05:12:11;7.30;90.30
7844;DHT22;3967;48.702;9.326;2024-02-26T05:14:37;7.30;90.10
7844;DHT22;3967;48.702;9.326;2024-02-26T05:17:04;7.20;90.00
7844;DHT22;3967;48.702;9.326;2024-02-26T05:19:32;7.20;90.00
7844;DHT22;3967;48.702;9.326;2024-02-26T05:21:59;7.20;89.50
7844;DHT22;3967;48.702;9.326;2024-02-26T05:24:26;7.20;88.90
7844;DHT22;3967;48.702;9.326;2024-02-26T05:26:53;7.30;89.30
7844;DHT22;3967;48.702;9.326;2024-02-26T05:29:21;7.40;89.00
7844;DHT22;3967;48.702;9.326;2024-02-26T05:31:47;7.60;89.10
7844;DHT22;3967;48.702;9.326;2024-02-26T05:34:14;7.50;88.70
7844;DHT22;3967;48.702;9.326;2024-02-26T05:36:41;7.50;89.20
7844;DHT22;3967;48.702;9.326;2024-02-26T05:39:08;7.50;89.50
7844;DHT22;3967;48.702;9.326;2024-02-26T05:41:43;7.60;90.10
7844;DHT22;3967;48.702;9.326;2024-02-26T05:44:11;7.80;92.50
7844;DHT22;3967;48.702;9.326;2024-02-26T05:46:38;7.70;90.70
7844;DHT22;3967;48.702;9.326;2024-02-26T05:49:05;7.70;91.00
7844;DHT22;3967;48.702;9.326;2024-02-26T05:51:31;7.70;91.20
7844;DHT22;3967;48.702;9.326;2024-02-26T05:53:58;7.70;91.20
7844;DHT22;3967;48.702;9.326;2024-02-26T05:56:25;7.60;91.70
7844;DHT22;3967;48.702;9.326;2024-02-26T05:58:52;7.50;91.80
7844;DHT22;3967;48.702;9.326;2024-02-26T06:01:20;7.50;92.10
7844;DHT22;3967;48.702;9.326;2024-02-26T06:03:47;7.50;92.20
7844;DHT22;3967;48.702;9.326;2024-02-26T06:06:14;7.50;92.20
7844;DHT22;3967;48.702;9.326;2024-02-26T06:08:44;7.50;92.70
7844;DHT22;3967;48.702;9.326;2024-02-26T06:11:11;7.50;92.70
7844;DHT22;3967;48.702;9.326;2024-02-26T06:13:38;7.60;92.80
7844;DHT22;3967;48.702;9.326;2024-02-26T06:16:04;7.60;92.40
7844;DHT22;3967;48.702;9.326;2024-02-26T06:18:34;7.50;92.40
7844;DHT22;3967;48.702;9.326;2024-02-26T06:21:01;7.50;92.70
7844;DHT22;3967;48.702;9.326;2024-02-26T06:23:29;7.50;92.70
7844;DHT22;3967;48.702;9.326;2024-02-26T06:25:55;7.50;92.70
7844;DHT22;3967;48.702;9.326;2024-02-26T06:28:22;7.30;92.90
7844;DHT22;3967;48.702;9.326;2024-02-26T06:30:49;7.40;93.50
7844;DHT22;3967;48.702;9.326;2024-02-26T06:33:17;7.50;93.90
7844;DHT22;3967;48.702;9.326;2024-02-26T06:35:43;7.50;93.40
7844;DHT22;3967;48.702;9.326;2024-02-26T06:38:10;7.40;93.00
7844;DHT22;3967;48.702;9.326;2024-02-26T06:40:39;7.40;92.80
7844;DHT22;3967;48.702;9.326;2024-02-26T06:43:06;7.40;92.90
7844;DHT22;3967;48.702;9.326;2024-02-26T06:45:33;7.40;93.00
7844;DHT22;3967;48.702;9.326;2024-02-26T06:48:00;7.50;92.90
7844;DHT22;3967;48.702;9.326;2024-02-26T06:50:27;7.50;92.70
7844;DHT22;3967;48.702;9.326;2024-02-26T06:52:54;7.60;92.90
7844;DHT22;3967;48.702;9.326;2024-02-26T06:55:21;7.60;92.90
7844;DHT22;3967;48.702;9.326;2024-02-26T06:57:47;7.60;92.80
7844;DHT22;3967;48.702;9.326;2024-02-26T07:00:14;7.50;92.90
7844;DHT22;3967;48.702;9.326;2024-02-26T07:02:43;7.50;93.10
7844;DHT22;3967;48.702;9.326;2024-02-26T07:05:10;7.60;93.20
7844;DHT22;3967;48.702;9.326;2024-02-26T07:07:37;7.60;93.30
7844;DHT22;3967;48.702;9.326;2024-02-26T07:10:05;7.60;93.40
7844;DHT22;3967;48.702;9.326;2024-02-26T07:12:32;7.70;93.30
7844;DHT22;3967;48.702;9.326;2024-02-26T07:15:00;7.70;93.50
7844;DHT22;3967;48.702;9.326;2024-02-26T07:17:27;7.70;93.30
7844;DHT22;3967;48.702;9.326;2024-02-26T07:19:54;7.80;93.30
7844;DHT22;3967;48.702;9.326;2024-02-26T07:22:21;7.80;93.20
7844;DHT22;3967;48.702;9.326;2024-02-26T07:24:47;7.80;93.40
7844;DHT22;3967;48.702;9.326;2024-02-26T07:27:14;7.70;93.00
7844;DHT22;3967;48.702;9.326;2024-02-26T07:29:44;7.80;92.90
7844;DHT22;3967;48.702;9.326;2024-02-26T07:32:11;7.90;93.00
7844;DHT22;3967;48.702;9.326;2024-02-26T07:34:37;7.90;93.40
7844;DHT22;3967;48.702;9.326;2024-02-26T07:37:08;7.80;93.10
7844;DHT22;3967;48.702;9.326;2024-02-26T07:39:35;7.80;93.70
7844;DHT22;3967;48.702;9.326;2024-02-26T07:42:03;7.80;93.10
7844;DHT22;3967;48.702;9.326;2024-02-26T07:44:30;7.80;92.90
7844;DHT22;3967;48.702;9.326;2024-02-26T07:46:57;7.90;92.70
7844;DHT22;3967;48.702;9.326;2024-02-26T07:49:23;8.00;92.70
7844;DHT22;3967;48.702;9.326;2024-02-26T07:51:50;8.00;92.70
7844;DHT22;3967;48.702;9.326;2024-02-26T07:54:17;8.00;92.00
7844;DHT22;3967;48.702;9.326;2024-02-26T07:56:46;8.00;91.80
7844;DHT22;3967;48.702;9.326;2024-02-26T07:59:13;8.00;91.40
7844;DHT22;3967;48.702;9.326;2024-02-26T08:01:40;8.00;91.10
7844;DHT22;3967;48.702;9.326;2024-02-26T08:04:08;8.00;91.60
7844;DHT22;3967;48.702;9.326;2024-02-26T08:06:35;8.00;92.20
7844;DHT22;3967;48.702;9.326;2024-02-26T08:09:04;8.00;92.00
7844;DHT22;3967;48.702;9.326;2024-02-26T08:11:31;8.00;91.60
7844;DHT22;3967;48.702;9.326;2024-02-26T08:13:58;8.00;91.00
7844;DHT22;3967;48.702;9.326;2024-02-26T08:16:25;7.90;91.20
7844;DHT22;3967;48.702;9.326;2024-02-26T08:18:53;7.80;91.10
7844;DHT22;3967;48.702;9.326;2024-02-26T08:21:20;7.80;91.20
7844;DHT22;3967;48.702;9.326;2024-02-26T08:23:47;7.80;91.30
7844;DHT22;3967;48.702;9.326;2024-02-26T08:26:14;7.80;91.80
7844;DHT22;3967;48.702;9.326;2024-02-26T08:28:41;7.60;92.50
7844;DHT22;3967;48.702;9.326;2024-02-26T08:31:08;7.60;93.20
7844;DHT22;3967;48.702;9.326;2024-02-26T08:33:34;7.80;92.80
7844;DHT22;3967;48.702;9.326;2024-02-26T08:36:05;7.90;92.60
7844;DHT22;3967;48.702;9.326;2024-02-26T08:38:33;7.70;92.60
7844;DHT22;3967;48.702;9.326;2024-02-26T08:41:04;7.90;93.00
7844;DHT22;3967;48.702;9.326;2024-02-26T08:43:31;8.00;92.80
7844;DHT22;3967;48.702;9.326;2024-02-26T08:45:58;7.90;92.40
7844;DHT22;3967;48.702;9.326;2024-02-26T08:48:25;7.90;93.50
7844;DHT22;3967;48.702;9.326;2024-02-26T08:50:52;7.90;93.50
7844;DHT22;3967;48.702;9.326;2024-02-26T08:53:19;8.10;93.50
7844;DHT22;3967;48.702;9.326;2024-02-26T08:55:57;8.20;93.50
7844;DHT22;3967;48.702;9.326;2024-02-26T08:58:24;8.20;93.40
7844;DHT22;3967;48.702;9.326;2024-02-26T09:00:50;8.10;93.20
7844;DHT22;3967;48.702;9.326;2024-02-26T09:03:17;8.30;93.40
7844;DHT22;3967;48.702;9.326;2024-02-26T09:05:44;8.30;93.50
7844;DHT22;3967;48.702;9.326;2024-02-26T09:08:11;8.50;93.10
7844;DHT22;3967;48.702;9.326;2024-02-26T09:10:38;8.50;92.70
7844;DHT22;3967;48.702;9.326;2024-02-26T09:13:05;8.40;92.60
7844;DHT22;3967;48.702;9.326;2024-02-26T09:15:32;8.40;93.00
7844;DHT22;3967;48.702;9.326;2024-02-26T09:17:59;8.40;92.60
7844;DHT22;3967;48.702;9.326;2024-02-26T09:20:26;8.30;92.70
7844;DHT22;3967;48.702;9.326;2024-02-26T09:22:53;8.40;92.40
7844;DHT22;3967;48.702;9.326;2024-02-26T09:25:20;8.50;91.60
7844;DHT22;3967;48.702;9.326;2024-02-26T09:27:47;8.60;91.30
7844;DHT22;3967;48.702;9.326;2024-02-26T09:30:14;8.60;91.20
7844;DHT22;3967;48.702;9.326;2024-02-26T09:32:41;8.60;91.10
7844;DHT22;3967;48.702;9.326;2024-02-26T09:35:12;8.70;90.80
7844;DHT22;3967;48.702;9.326;2024-02-26T09:37:39;8.70;90.70
7844;DHT22;3967;48.702;9.326;2024-02-26T09:40:07;8.70;91.00
7844;DHT22;3967;48.702;9.326;2024-02-26T09:42:34;8.80;91.00
7844;DHT22;3967;48.702;9.326;2024-02-26T09:45:05;8.80;90.90
7844;DHT22;3967;48.702;9.326;2024-02-26T09:47:36;8.80;91.00
7844;DHT22;3967;48.702;9.326;2024-02-26T09:50:06;8.70;91.30
7844;DHT22;3967;48.702;9.326;2024-02-26T09:52:37;8.80;91.20
7844;DHT22;3967;48.702;9.326;2024-02-26T09:55:05;8.80;91.00
7844;DHT22;3967;48.702;9.326;2024-02-26T09:57:34;8.70;90.80
7844;DHT22;3967;48.702;9.326;2024-02-26T10:00:04;8.60;91.60
7844;DHT22;3967;48.702;9.326;2024-02-26T10:02:33;8.60;91.80
7844;DHT22;3967;48.702;9.326;2024-02-26T10:05:02;8.80;91.10
7844;DHT22;3967;48.702;9.326;2024-02-26T10:07:32;8.90;90.70
7844;DHT22;3967;48.702;9.326;2024-02-26T10:09:59;9.10;90.30
7844;DHT22;3967;48.702;9.326;2024-02-26T10:12:28;9.10;90.00
7844;DHT22;3967;48.702;9.326;2024-02-26T10:14:55;9.20;90.00
7844;DHT22;3967;48.702;9.326;2024-02-26T10:17:22;9.30;89.40
7844;DHT22;3967;48.702;9.326;2024-02-26T10:19:49;9.50;89.50
7844;DHT22;3967;48.702;9.326;2024-02-26T10:22:18;9.60;88.40
7844;DHT22;3967;48.702;9.326;2024-02-26T10:24:47;9.60;87.60
7844;DHT22;3967;48.702;9.326;2024-02-26T10:27:15;9.40;87.40
7844;DHT22;3967;48.702;9.326;2024-02-26T10:29:41;9.50;87.80
7844;DHT22;3967;48.702;9.326;2024-02-26T10:32:09;9.60;86.50
7844;DHT22;3967;48.702;9.326;2024-02-26T10:34:37;9.70;85.80
7844;DHT22;3967;48.702;9.326;2024-02-26T10:37:07;9.70;85.30
7844;DHT22;3967;48.702;9.326;2024-02-26T10:39:36;9.90;85.00
7844;DHT22;3967;48.702;9.326;2024-02-26T10:42:04;10.10;82.50
7844;DHT22;3967;48.702;9.326;2024-02-26T10:44:36;10.20;81.50
7844;DHT22;3967;48.702;9.326;2024-02-26T10:47:03;10.30;80.60
7844;DHT22;3967;48.702;9.326;2024-02-26T10:49:30;10.30;80.50
7844;DHT22;3967;48.702;9.326;2024-02-26T10:51:57;10.40;80.50
7844;DHT22;3967;48.702;9.326;2024-02-26T10:54:26;10.50;80.60
7844;DHT22;3967;48.702;9.326;2024-02-26T10:56:56;10.60;80.30
7844;DHT22;3967;48.702;9.326;2024-02-26T10:59:24;10.80;79.60
7844;DHT22;3967;48.702;9.326;2024-02-26T11:01:52;10.90;78.80
7844;DHT22;3967;48.702;9.326;2024-02-26T11:04:20;11.00;78.80
7844;DHT22;3967;48.702;9.326;2024-02-26T11:06:49;10.90;78.70
7844;DHT22;3967;48.702;9.326;2024-02-26T11:09:17;11.00;78.30
7844;DHT22;3967;48.702;9.326;2024-02-26T11:11:48;11.00;77.20
7844;DHT22;3967;48.702;9.326;2024-02-26T11:14:15;11.10;77.40
7844;DHT22;3967;48.702;9.326;2024-02-26T11:16:43;11.10;77.60
7844;DHT22;3967;48.702;9.326;2024-02-26T11:19:11;11.10;76.60
7844;DHT22;3967;48.702;9.326;2024-02-26T11:21:40;11.10;75.30
7844;DHT22;3967;48.702;9.326;2024-02-26T11:24:12;11.20;75.40
7844;DHT22;3967;48.702;9.326;2024-02-26T11:26:48;11.40;75.30
7844;DHT22;3967;48.702;9.326;2024-02-26T11:29:20;11.50;74.00
7844;DHT22;3967;48.702;9.326;2024-02-26T11:31:48;11.50;74.00
7844;DHT22;3967;48.702;9.326;2024-02-26T11:34:15;11.50;73.40
7844;DHT22;3967;48.702;9.326;2024-02-26T11:36:43;11.60;73.50
7844;DHT22;3967;48.702;9.326;2024-02-26T11:39:11;11.70;73.70
7844;DHT22;3967;48.702;9.326;2024-02-26T11:41:43;11.80;73.60
7844;DHT22;3967;48.702;9.326;2024-02-26T11:44:10;12.00;73.40
7844;DHT22;3967;48.702;9.326;2024-02-26T11:46:41;12.10;76.30
7844;DHT22;3967;48.702;9.326;2024-02-26T11:51:56;12.20;76.00
7844;DHT22;3967;48.702;9.326;2024-02-26T11:54:46;12.30;76.70
7844;DHT22;3967;48.702;9.326;2024-02-26T11:57:22;12.40;76.50
7844;DHT22;3967;48.702;9.326;2024-02-26T11:59:49;12.30;75.20
7844;DHT22;3967;48.702;9.326;2024-02-26T12:05:12;12.20;74.70
7844;DHT22;3967;48.702;9.326;2024-02-26T12:07:40;12.40;73.60
7844;DHT22;3967;48.702;9.326;2024-02-26T12:12:58;12.50;71.40
7844;DHT22;3967;48.702;9.326;2024-02-26T12:15:34;12.60;70.10
7844;DHT22;3967;48.702;9.326;2024-02-26T12:18:07;12.80;71.90
7844;DHT22;3967;48.702;9.326;2024-02-26T12:20:34;12.90;71.10
7844;DHT22;3967;48.702;9.326;2024-02-26T12:23:02;13.10;69.60
7844;DHT22;3967;48.702;9.326;2024-02-26T12:25:31;13.00;67.10
7844;DHT22;3967;48.702;9.326;2024-02-26T12:27:59;13.00;66.90
7844;DHT22;3967;48.702;9.326;2024-02-26T12:30:27;12.90;67.90
7844;DHT22;3967;48.702;9.326;2024-02-26T12:32:56;13.00;67.00
7844;DHT22;3967;48.702;9.326;2024-02-26T12:35:24;13.00;68.10
7844;DHT22;3967;48.702;9.326;2024-02-26T12:37:52;13.20;67.50
7844;DHT22;3967;48.702;9.326;2024-02-26T12:40:20;13.10;68.20
7844;DHT22;3967;48.702;9.326;2024-02-26T12:42:48;13.10;68.30
7844;DHT22;3967;48.702;9.326;2024-02-26T12:45:15;13.10;67.40
7844;DHT22;3967;48.702;9.326;2024-02-26T12:47:44;13.20;67.10
7844;DHT22;3967;48.702;9.326;2024-02-26T12:50:16;13.20;68.10
7844;DHT22;3967;48.702;9.326;2024-02-26T12:52:47;13.20;68.10
7844;DHT22;3967;48.702;9.326;2024-02-26T12:55:19;13.30;68.00
7844;DHT22;3967;48.702;9.326;2024-02-26T12:57:47;13.40;67.40
7844;DHT22;3967;48.702;9.326;2024-02-26T13:00:18;13.40;67.30
7844;DHT22;3967;48.702;9.326;2024-02-26T13:02:47;13.30;65.70
7844;DHT22;3967;48.702;9.326;2024-02-26T13:05:16;13.40;64.30
7844;DHT22;3967;48.702;9.326;2024-02-26T13:07:44;13.40;64.90
7844;DHT22;3967;48.702;9.326;2024-02-26T13:10:14;13.50;64.50
7844;DHT22;3967;48.702;9.326;2024-02-26T13:12:45;13.60;65.00
7844;DHT22;3967;48.702;9.326;2024-02-26T13:15:17;13.60;64.20
7844;DHT22;3967;48.702;9.326;2024-02-26T13:17:44;13.60;64.20
7844;DHT22;3967;48.702;9.326;2024-02-26T13:20:12;13.50;64.40
7844;DHT22;3967;48.702;9.326;2024-02-26T13:22:40;13.60;65.10
7844;DHT22;3967;48.702;9.326;2024-02-26T13:25:07;13.70;65.40
7844;DHT22;3967;48.702;9.326;2024-02-26T13:27:34;13.70;65.00
7844;DHT22;3967;48.702;9.326;2024-02-26T13:30:11;13.70;65.70
7844;DHT22;3967;48.702;9.326;2024-02-26T13:32:40;13.70;65.10
7844;DHT22;3967;48.702;9.326;2024-02-26T13:35:09;13.70;64.40
7844;DHT22;3967;48.702;9.326;2024-02-26T13:37:36;13.70;65.10
7844;DHT22;3967;48.702;9.326;2024-02-26T13:40:10;13.80;65.30
7844;DHT22;3967;48.702;9.326;2024-02-26T13:42:38;13.80;64.40
7844;DHT22;3967;48.702;9.326;2024-02-26T13:45:05;13.80;65.00
7844;DHT22;3967;48.702;9.326;2024-02-26T13:47:35;13.80;65.80
7844;DHT22;3967;48.702;9.326;2024-02-26T13:50:03;13.60;67.00
7844;DHT22;3967;48.702;9.326;2024-02-26T13:52:30;13.60;66.60
7844;DHT22;3967;48.702;9.326;2024-02-26T13:54:59;13.60;66.90
7844;DHT22;3967;48.702;9.326;2024-02-26T13:57:26;13.70;67.30
7844;DHT22;3967;48.702;9.326;2024-02-26T13:59:54;13.80;66.60
7844;DHT22;3967;48.702;9.326;2024-02-26T14:02:21;13.90;66.50
7844;DHT22;3967;48.702;9.326;2024-02-26T14:04:48;14.00;67.10
7844;DHT22;3967;48.702;9.326;2024-02-26T14:07:14;14.00;67.00
7844;DHT22;3967;48.702;9.326;2024-02-26T14:09:43;13.80;66.30
7844;DHT22;3967;48.702;9.326;2024-02-26T14:12:16;13.80;67.00
7844;DHT22;3967;48.702;9.326;2024-02-26T14:14:47;13.80;67.40
7844;DHT22;3967;48.702;9.326;2024-02-26T14:17:15;13.90;67.20
7844;DHT22;3967;48.702;9.326;2024-02-26T14:19:42;13.90;67.10
7844;DHT22;3967;48.702;9.326;2024-02-26T14:22:14;13.90;67.10
7844;DHT22;3967;48.702;9.326;2024-02-26T14:24:44;13.90;67.10
7844;DHT22;3967;48.702;9.326;2024-02-26T14:27:13;13.90;67.10
7844;DHT22;3967;48.702;9.326;2024-02-26T14:29:44;14.00;67.10
7844;DHT22;3967;48.702;9.326;2024-02-26T14:32:10;14.00;66.10
7844;DHT22;3967;48.702;9.326;2024-02-26T14:34:37;13.80;66.30
7844;DHT22;3967;48.702;9.326;2024-02-26T14:37:05;13.80;65.10
7844;DHT22;3967;48.702;9.326;2024-02-26T14:39:32;14.00;64.50
7844;DHT22;3967;48.702;9.326;2024-02-26T14:42:00;14.00;64.60
7844;DHT22;3967;48.702;9.326;2024-02-26T14:44:27;14.00;65.10
7844;DHT22;3967;48.702;9.326;2024-02-26T14:46:54;14.10;64.50
7844;DHT22;3967;48.702;9.326;2024-02-26T14:49:20;14.10;64.90
7844;DHT22;3967;48.702;9.326;2024-02-26T14:51:47;14.00;64.50
7844;DHT22;3967;48.702;9.326;2024-02-26T14:54:14;13.90;64.20
7844;DHT22;3967;48.702;9.326;2024-02-26T14:56:41;13.80;64.70
7844;DHT22;3967;48.702;9.326;2024-02-26T14:59:08;13.80;64.30
7844;DHT22;3967;48.702;9.326;2024-02-26T15:01:35;13.70;64.90
7844;DHT22;3967;48.702;9.326;2024-02-26T15:04:02;13.60;64.60
7844;DHT22;3967;48.702;9.326;2024-02-26T15:06:30;13.70;64.80
7844;DHT22;3967;48.702;9.326;2024-02-26T15:08:57;13.80;64.70
7844;DHT22;3967;48.702;9.326;2024-02-26T15:11:24;13.70;64.20
7844;DHT22;3967;48.702;9.326;2024-02-26T15:13:51;13.60;64.20
7844;DHT22;3967;48.702;9.326;2024-02-26T15:16:19;13.70;64.60
7844;DHT22;3967;48.702;9.326;2024-02-26T15:18:47;13.70;64.70
7844;DHT22;3967;48.702;9.326;2024-02-26T15:21:14;13.70;64.70
7844;DHT22;3967;48.702;9.326;2024-02-26T15:23:44;13.70;64.80
7844;DHT22;3967;48.702;9.326;2024-02-26T15:26:30;13.60;64.80
7844;DHT22;3967;48.702;9.326;2024-02-26T15:28:57;13.60;65.30
7844;DHT22;3967;48.702;9.326;2024-02-26T15:31:23;13.80;66.20
7844;DHT22;3967;48.702;9.326;2024-02-26T15:33:50;13.80;66.00
7844;DHT22;3967;48.702;9.326;2024-02-26T15:36:17;13.60;66.30
7844;DHT22;3967;48.702;9.326;2024-02-26T15:38:44;13.50;67.00
7844;DHT22;3967;48.702;9.326;2024-02-26T15:41:14;13.50;67.00
7844;DHT22;3967;48.702;9.326;2024-02-26T15:43:41;13.50;66.70
7844;DHT22;3967;48.702;9.326;2024-02-26T15:46:08;13.60;67.20
7844;DHT22;3967;48.702;9.326;2024-02-26T15:48:38;13.70;67.80
7844;DHT22;3967;48.702;9.326;2024-02-26T15:51:05;13.70;68.00
7844;DHT22;3967;48.702;9.326;2024-02-26T15:53:32;13.70;68.20
7844;DHT22;3967;48.702;9.326;2024-02-26T15:55:59;13.50;69.80
7844;DHT22;3967;48.702;9.326;2024-02-26T15:58:26;13.30;70.80
7844;DHT22;3967;48.702;9.326;2024-02-26T16:00:53;13.30;71.50
7844;DHT22;3967;48.702;9.326;2024-02-26T16:03:22;13.10;72.60
7844;DHT22;3967;48.702;9.326;2024-02-26T16:05:48;12.90;73.10
7844;DHT22;3967;48.702;9.326;2024-02-26T16:08:21;13.00;74.20
7844;DHT22;3967;48.702;9.326;2024-02-26T16:10:48;13.00;74.20
7844;DHT22;3967;48.702;9.326;2024-02-26T16:13:15;13.00;74.70
7844;DHT22;3967;48.702;9.326;2024-02-26T16:16:02;12.90;75.40
7844;DHT22;3967;48.702;9.326;2024-02-26T16:18:31;12.80;75.20
7844;DHT22;3967;48.702;9.326;2024-02-26T16:21:00;12.80;75.00
7844;DHT22;3967;48.702;9.326;2024-02-26T16:23:26;12.90;75.50